sensor_id;sensor_type;location;lat;lon;timestamp;pressure;altitude;pressure_sealevel;temperature;humidity
47636;BME280;33364;50.766;15.338;2023-02-28T00:02:19;95923.56;;;-3.75;76.08
47636;BME280;33364;50.766;15.338;2023-02-28T00:04:44;95917.09;;;-3.81;74.71
47636;BME280;33364;50.766;15.338;2023-02-28T00:07:10;95930.41;;;-3.74;74.71
47636;BME280;33364;50.766;15.338;2023-02-28T00:09:36;95920.06;;;-3.95;73.73
47636;BME280;33364;50.766;15.338;2023-02-28T00:12:02;95923.81;;;-4.09;74.10
47636;BME280;33364;50.766;15.338;2023-02-28T00:14:36;95929.81;;;-4.18;76.53
47636;BME280;33364;50.766;15.338;2023-02-28T00:17:02;95932.75;;;-4.02;78.21
47636;BME280;33364;50.766;15.338;2023-02-28T00:19:27;95927.00;;;-3.96;76.73
47636;BME280;33364;50.766;15.338;2023-02-28T00:21:53;95923.47;;;-3.95;75.37
47636;BME280;33364;50.766;15.338;2023-02-28T00:24:19;95930.91;;;-3.80;77.67
47636;BME280;33364;50.766;15.338;2023-02-28T00:26:45;95924.66;;;-4.09;74.39
47636;BME280;33364;50.766;15.338;2023-02-28T00:29:10;95918.53;;;-3.98;75.67
47636;BME280;33364;50.766;15.338;2023-02-28T00:31:36;95922.66;;;-4.26;74.75
47636;BME280;33364;50.766;15.338;2023-02-28T00:34:02;95926.00;;;-4.35;76.88
47636;BME280;33364;50.766;15.338;2023-02-28T00:36:27;95926.06;;;-4.26;74.86
47636;BME280;33364;50.766;15.338;2023-02-28T00:38:53;95922.53;;;-4.46;73.99
47636;BME280;33364;50.766;15.338;2023-02-28T00:41:19;95915.81;;;-4.27;78.75
47636;BME280;33364;50.766;15.338;2023-02-28T00:43:45;95923.97;;;-4.32;75.15
47636;BME280;33364;50.766;15.338;2023-02-28T00:46:11;95923.31;;;-4.03;79.93
47636;BME280;33364;50.766;15.338;2023-02-28T00:48:36;95922.56;;;-3.84;77.39
47636;BME280;33364;50.766;15.338;2023-02-28T00:51:02;95927.69;;;-4.03;76.76
47636;BME280;33364;50.766;15.338;2023-02-28T00:53:29;95917.84;;;-4.31;74.36
47636;BME280;33364;50.766;15.338;2023-02-28T00:55:55;95923.19;;;-4.01;78.71
47636;BME280;33364;50.766;15.338;2023-02-28T00:58:21;95918.13;;;-4.03;77.70
47636;BME280;33364;50.766;15.338;2023-02-28T01:00:47;95919.09;;;-3.94;77.40
47636;BME280;33364;50.766;15.338;2023-02-28T01:03:19;95918.88;;;-3.81;79.69
47636;BME280;33364;50.766;15.338;2023-02-28T01:05:46;95922.44;;;-3.82;77.90
47636;BME280;33364;50.766;15.338;2023-02-28T01:08:12;95923.78;;;-3.88;75.75
47636;BME280;33364;50.766;15.338;2023-02-28T01:10:39;95924.03;;;-4.22;75.21
47636;BME280;33364;50.766;15.338;2023-02-28T01:13:05;95923.41;;;-4.35;76.30
47636;BME280;33364;50.766;15.338;2023-02-28T01:15:32;95924.09;;;-4.33;78.02
47636;BME280;33364;50.766;15.338;2023-02-28T01:17:58;95927.09;;;-4.38;76.34
47636;BME280;33364;50.766;15.338;2023-02-28T01:20:24;95916.06;;;-4.51;74.54
47636;BME280;33364;50.766;15.338;2023-02-28T01:22:50;95926.78;;;-4.66;74.15
47636;BME280;33364;50.766;15.338;2023-02-28T01:25:16;95918.09;;;-4.76;72.75
47636;BME280;33364;50.766;15.338;2023-02-28T01:27:41;95920.13;;;-4.58;79.24
47636;BME280;33364;50.766;15.338;2023-02-28T01:30:08;95912.97;;;-4.66;74.99
47636;BME280;33364;50.766;15.338;2023-02-28T01:32:35;95907.47;;;-4.73;76.06
47636;BME280;33364;50.766;15.338;2023-02-28T01:35:01;95917.53;;;-4.80;78.23
47636;BME280;33364;50.766;15.338;2023-02-28T01:37:26;95907.28;;;-4.81;76.38
47636;BME280;33364;50.766;15.338;2023-02-28T01:39:52;95910.56;;;-4.79;74.38
47636;BME280;33364;50.766;15.338;2023-02-28T01:42:18;95910.91;;;-4.93;72.90
47636;BME280;33364;50.766;15.338;2023-02-28T01:47:31;95907.38;;;-5.04;74.12
47636;BME280;33364;50.766;15.338;2023-02-28T01:49:58;95912.13;;;-5.09;72.25
47636;BME280;33364;50.766;15.338;2023-02-28T01:52:26;95924.47;;;-5.45;75.75
47636;BME280;33364;50.766;15.338;2023-02-28T01:54:59;95917.09;;;-5.61;72.81
47636;BME280;33364;50.766;15.338;2023-02-28T01:57:29;95910.56;;;-5.32;75.52
47636;BME280;33364;50.766;15.338;2023-02-28T02:00:06;95905.88;;;-5.39;75.55
47636;BME280;33364;50.766;15.338;2023-02-28T02:02:35;95906.69;;;-5.38;77.76
47636;BME280;33364;50.766;15.338;2023-02-28T02:05:06;95910.31;;;-5.29;76.14
47636;BME280;33364;50.766;15.338;2023-02-28T02:07:35;95906.44;;;-5.35;74.92
47636;BME280;33364;50.766;15.338;2023-02-28T02:10:16;95910.13;;;-5.38;73.32
47636;BME280;33364;50.766;15.338;2023-02-28T02:18:30;95898.56;;;-5.45;73.87
47636;BME280;33364;50.766;15.338;2023-02-28T02:26:44;95895.84;;;-5.32;74.94
47636;BME280;33364;50.766;15.338;2023-02-28T02:29:26;95897.56;;;-5.21;76.57
47636;BME280;33364;50.766;15.338;2023-02-28T02:37:52;95898.56;;;-5.45;75.07
47636;BME280;33364;50.766;15.338;2023-02-28T02:40:25;95911.28;;;-5.42;77.60
47636;BME280;33364;50.766;15.338;2023-02-28T02:43:02;95896.94;;;-5.46;74.32
47636;BME280;33364;50.766;15.338;2023-02-28T02:45:41;95903.81;;;-5.67;72.31
47636;BME280;33364;50.766;15.338;2023-02-28T02:48:11;95903.78;;;-6.11;74.15
47636;BME280;33364;50.766;15.338;2023-02-28T02:50:43;95898.53;;;-5.77;78.98
47636;BME280;33364;50.766;15.338;2023-02-28T02:53:13;95901.78;;;-6.07;71.08
47636;BME280;33364;50.766;15.338;2023-02-28T02:55:43;95898.59;;;-6.22;71.28
47636;BME280;33364;50.766;15.338;2023-02-28T02:58:14;95898.94;;;-6.27;72.37
47636;BME280;33364;50.766;15.338;2023-02-28T03:01:02;95908.81;;;-6.43;71.08
47636;BME280;33364;50.766;15.338;2023-02-28T03:03:30;95904.72;;;-6.23;75.81
47636;BME280;33364;50.766;15.338;2023-02-28T03:05:59;95900.97;;;-6.08;77.62
47636;BME280;33364;50.766;15.338;2023-02-28T03:08:27;95905.41;;;-6.33;71.76
47636;BME280;33364;50.766;15.338;2023-02-28T03:10:59;95905.16;;;-6.07;79.22
47636;BME280;33364;50.766;15.338;2023-02-28T03:29:48;95902.47;;;-6.05;75.61
47636;BME280;33364;50.766;15.338;2023-02-28T03:33:06;95903.66;;;-6.10;72.27
47636;BME280;33364;50.766;15.338;2023-02-28T03:35:39;95903.88;;;-6.47;73.41
47636;BME280;33364;50.766;15.338;2023-02-28T03:38:14;95901.66;;;-6.29;76.71
47636;BME280;33364;50.766;15.338;2023-02-28T03:40:49;95908.34;;;-6.37;72.68
47636;BME280;33364;50.766;15.338;2023-02-28T03:43:22;95893.53;;;-6.47;73.85
47636;BME280;33364;50.766;15.338;2023-02-28T03:45:50;95901.16;;;-6.56;71.62
47636;BME280;33364;50.766;15.338;2023-02-28T03:50:58;95903.06;;;-6.47;79.81
47636;BME280;33364;50.766;15.338;2023-02-28T03:53:28;95903.19;;;-6.37;74.04
47636;BME280;33364;50.766;15.338;2023-02-28T03:56:05;95897.75;;;-6.57;75.09
47636;BME280;33364;50.766;15.338;2023-02-28T04:01:08;95898.06;;;-6.73;76.48
47636;BME280;33364;50.766;15.338;2023-02-28T04:03:39;95896.28;;;-6.72;75.39
47636;BME280;33364;50.766;15.338;2023-02-28T04:06:07;95900.69;;;-6.97;68.07
47636;BME280;33364;50.766;15.338;2023-02-28T04:08:33;95897.97;;;-7.31;70.77
47636;BME280;33364;50.766;15.338;2023-02-28T04:11:18;95895.91;;;-7.50;69.27
47636;BME280;33364;50.766;15.338;2023-02-28T04:13:45;95893.56;;;-7.53;74.66
47636;BME280;33364;50.766;15.338;2023-02-28T04:16:11;95903.53;;;-7.24;73.96
47636;BME280;33364;50.766;15.338;2023-02-28T04:18:40;95896.13;;;-7.29;73.41
47636;BME280;33364;50.766;15.338;2023-02-28T04:21:06;95907.59;;;-7.57;74.15
47636;BME280;33364;50.766;15.338;2023-02-28T04:23:33;95903.53;;;-7.24;74.39
47636;BME280;33364;50.766;15.338;2023-02-28T04:25:58;95906.63;;;-7.43;74.33
47636;BME280;33364;50.766;15.338;2023-02-28T04:28:24;95903.94;;;-7.17;74.15
47636;BME280;33364;50.766;15.338;2023-02-28T04:30:57;95902.94;;;-6.92;78.48
47636;BME280;33364;50.766;15.338;2023-02-28T04:33:23;95898.19;;;-6.74;78.84
47636;BME280;33364;50.766;15.338;2023-02-28T04:38:25;95900.50;;;-6.83;76.08
47636;BME280;33364;50.766;15.338;2023-02-28T04:40:51;95905.56;;;-6.81;77.53
47636;BME280;33364;50.766;15.338;2023-02-28T04:43:17;95909.03;;;-6.47;78.52
47636;BME280;33364;50.766;15.338;2023-02-28T04:45:43;95908.19;;;-6.70;74.85
47636;BME280;33364;50.766;15.338;2023-02-28T04:48:08;95902.56;;;-6.63;76.23
47636;BME280;33364;50.766;15.338;2023-02-28T04:50:34;95900.91;;;-6.65;74.75
47636;BME280;33364;50.766;15.338;2023-02-28T04:53:00;95905.00;;;-6.62;74.36
47636;BME280;33364;50.766;15.338;2023-02-28T04:55:26;95914.50;;;-6.74;73.81
47636;BME280;33364;50.766;15.338;2023-02-28T04:57:51;95912.00;;;-6.87;77.17
47636;BME280;33364;50.766;15.338;2023-02-28T05:00:17;95905.97;;;-6.63;79.25
47636;BME280;33364;50.766;15.338;2023-02-28T05:02:43;95904.22;;;-6.51;78.74
47636;BME280;33364;50.766;15.338;2023-02-28T05:05:09;95904.75;;;-6.81;75.58
47636;BME280;33364;50.766;15.338;2023-02-28T05:07:34;95907.56;;;-6.85;74.14
47636;BME280;33364;50.766;15.338;2023-02-28T05:10:00;95909.34;;;-6.62;78.08
47636;BME280;33364;50.766;15.338;2023-02-28T05:12:26;95909.50;;;-6.53;78.28
47636;BME280;33364;50.766;15.338;2023-02-28T05:14:52;95906.16;;;-6.77;73.35
47636;BME280;33364;50.766;15.338;2023-02-28T05:17:17;95906.06;;;-6.65;77.93
47636;BME280;33364;50.766;15.338;2023-02-28T05:19:43;95905.97;;;-6.52;78.79
47636;BME280;33364;50.766;15.338;2023-02-28T05:22:14;95898.06;;;-6.73;76.23
47636;BME280;33364;50.766;15.338;2023-02-28T05:24:42;95908.13;;;-6.92;72.49
47636;BME280;33364;50.766;15.338;2023-02-28T05:27:08;95905.41;;;-7.26;72.12
47636;BME280;33364;50.766;15.338;2023-02-28T05:29:36;95902.81;;;-7.26;74.61
47636;BME280;33364;50.766;15.338;2023-02-28T05:32:11;95908.03;;;-7.15;74.90
47636;BME280;33364;50.766;15.338;2023-02-28T05:34:38;95917.94;;;-7.09;78.60
47636;BME280;33364;50.766;15.338;2023-02-28T05:37:04;95919.34;;;-7.05;75.75
47636;BME280;33364;50.766;15.338;2023-02-28T05:39:30;95909.03;;;-6.93;77.45
47636;BME280;33364;50.766;15.338;2023-02-28T05:41:55;95916.31;;;-6.98;77.89
47636;BME280;33364;50.766;15.338;2023-02-28T05:44:21;95921.97;;;-7.29;74.10
47636;BME280;33364;50.766;15.338;2023-02-28T05:46:47;95919.38;;;-7.29;76.96
47636;BME280;33364;50.766;15.338;2023-02-28T05:49:13;95927.47;;;-6.98;80.41
47636;BME280;33364;50.766;15.338;2023-02-28T05:51:38;95927.72;;;-7.01;77.91
47636;BME280;33364;50.766;15.338;2023-02-28T05:54:06;95931.38;;;-6.92;78.16
47636;BME280;33364;50.766;15.338;2023-02-28T05:56:32;95933.41;;;-7.09;72.92
47636;BME280;33364;50.766;15.338;2023-02-28T05:59:00;95937.34;;;-6.92;76.06
47636;BME280;33364;50.766;15.338;2023-02-28T06:04:07;95935.91;;;-7.07;75.31
47636;BME280;33364;50.766;15.338;2023-02-28T06:06:33;95947.66;;;-6.68;78.07
47636;BME280;33364;50.766;15.338;2023-02-28T06:09:00;95947.16;;;-6.73;73.94
47636;BME280;33364;50.766;15.338;2023-02-28T06:11:26;95953.84;;;-6.70;79.04
47636;BME280;33364;50.766;15.338;2023-02-28T06:13:55;95952.34;;;-6.73;72.55
47636;BME280;33364;50.766;15.338;2023-02-28T06:16:21;95952.38;;;-6.97;75.40
47636;BME280;33364;50.766;15.338;2023-02-28T06:18:48;95952.16;;;-6.94;74.50
47636;BME280;33364;50.766;15.338;2023-02-28T06:21:13;95952.44;;;-6.74;78.04
47636;BME280;33364;50.766;15.338;2023-02-28T06:23:39;95954.56;;;-6.79;74.86
47636;BME280;33364;50.766;15.338;2023-02-28T06:26:05;95968.00;;;-6.63;76.06
47636;BME280;33364;50.766;15.338;2023-02-28T06:28:31;95955.19;;;-6.65;74.06
47636;BME280;33364;50.766;15.338;2023-02-28T06:30:57;95962.59;;;-6.60;76.70
47636;BME280;33364;50.766;15.338;2023-02-28T06:33:23;95963.28;;;-6.69;73.76
47636;BME280;33364;50.766;15.338;2023-02-28T06:35:52;95967.38;;;-6.78;74.72
47636;BME280;33364;50.766;15.338;2023-02-28T06:38:18;95965.56;;;-6.89;74.14
47636;BME280;33364;50.766;15.338;2023-02-28T06:40:44;95972.38;;;-6.88;72.88
47636;BME280;33364;50.766;15.338;2023-02-28T06:43:10;95965.19;;;-6.95;73.24
47636;BME280;33364;50.766;15.338;2023-02-28T06:45:43;95968.03;;;-6.87;76.84
47636;BME280;33364;50.766;15.338;2023-02-28T06:48:09;95973.03;;;-6.97;73.67
47636;BME280;33364;50.766;15.338;2023-02-28T06:50:36;95977.81;;;-6.79;76.50
47636;BME280;33364;50.766;15.338;2023-02-28T06:53:02;95971.25;;;-6.72;75.59
47636;BME280;33364;50.766;15.338;2023-02-28T06:55:28;95973.34;;;-6.77;74.66
47636;BME280;33364;50.766;15.338;2023-02-28T06:57:54;95982.59;;;-6.51;77.11
47636;BME280;33364;50.766;15.338;2023-02-28T07:00:20;95982.72;;;-6.41;74.64
47636;BME280;33364;50.766;15.338;2023-02-28T07:02:46;95981.56;;;-6.37;74.09
47636;BME280;33364;50.766;15.338;2023-02-28T07:05:13;95985.91;;;-6.49;71.55
47636;BME280;33364;50.766;15.338;2023-02-28T07:07:39;95989.63;;;-6.53;72.24
47636;BME280;33364;50.766;15.338;2023-02-28T07:10:10;95996.13;;;-6.47;72.17
47636;BME280;33364;50.766;15.338;2023-02-28T07:12:37;95985.91;;;-6.49;73.07
47636;BME280;33364;50.766;15.338;2023-02-28T07:15:04;95987.69;;;-6.27;75.13
47636;BME280;33364;50.766;15.338;2023-02-28T07:17:30;95992.56;;;-6.11;75.35
47636;BME280;33364;50.766;15.338;2023-02-28T07:19:56;95992.19;;;-5.95;72.47
47636;BME280;33364;50.766;15.338;2023-02-28T07:22:22;95988.88;;;-5.85;72.17
47636;BME280;33364;50.766;15.338;2023-02-28T07:24:48;95986.53;;;-5.66;72.12
47636;BME280;33364;50.766;15.338;2023-02-28T07:27:14;95990.31;;;-5.47;71.02
47636;BME280;33364;50.766;15.338;2023-02-28T07:29:49;95994.16;;;-5.42;71.78
47636;BME280;33364;50.766;15.338;2023-02-28T07:32:15;95993.13;;;-4.95;74.61
47636;BME280;33364;50.766;15.338;2023-02-28T07:34:41;95988.97;;;-4.54;70.49
47636;BME280;33364;50.766;15.338;2023-02-28T07:37:07;95994.38;;;-4.46;67.87
47636;BME280;33364;50.766;15.338;2023-02-28T07:39:33;95982.06;;;-4.65;65.48
47636;BME280;33364;50.766;15.338;2023-02-28T07:41:58;95986.91;;;-4.39;67.61
47636;BME280;33364;50.766;15.338;2023-02-28T07:44:26;95974.47;;;-3.94;67.22
47636;BME280;33364;50.766;15.338;2023-02-28T07:46:52;95987.88;;;-3.89;64.39
47636;BME280;33364;50.766;15.338;2023-02-28T07:49:18;95988.94;;;-3.60;67.34
47636;BME280;33364;50.766;15.338;2023-02-28T07:51:44;95989.09;;;-3.11;64.29
47636;BME280;33364;50.766;15.338;2023-02-28T07:54:09;95992.69;;;-2.83;63.09
47636;BME280;33364;50.766;15.338;2023-02-28T07:56:35;95988.63;;;-2.66;63.28
47636;BME280;33364;50.766;15.338;2023-02-28T07:59:01;95986.41;;;-2.32;61.45
47636;BME280;33364;50.766;15.338;2023-02-28T08:01:27;95990.16;;;-1.87;61.34
47636;BME280;33364;50.766;15.338;2023-02-28T08:03:53;95985.38;;;-1.54;59.58
47636;BME280;33364;50.766;15.338;2023-02-28T08:06:22;95992.41;;;-1.27;57.95
47636;BME280;33364;50.766;15.338;2023-02-28T08:08:48;95989.84;;;-1.37;59.12
47636;BME280;33364;50.766;15.338;2023-02-28T08:11:15;95984.09;;;-1.13;58.74
47636;BME280;33364;50.766;15.338;2023-02-28T08:13:42;95995.03;;;-0.81;58.16
47636;BME280;33364;50.766;15.338;2023-02-28T08:16:10;95991.75;;;-0.29;59.71
47636;BME280;33364;50.766;15.338;2023-02-28T08:18:36;95993.72;;;-0.05;56.42
47636;BME280;33364;50.766;15.338;2023-02-28T08:21:09;95988.66;;;0.20;56.90
47636;BME280;33364;50.766;15.338;2023-02-28T08:23:35;95986.97;;;0.36;55.58
47636;BME280;33364;50.766;15.338;2023-02-28T08:26:02;95981.50;;;0.56;53.86
47636;BME280;33364;50.766;15.338;2023-02-28T08:28:28;95981.78;;;0.79;55.21
47636;BME280;33364;50.766;15.338;2023-02-28T08:30:54;95987.00;;;0.79;54.43
47636;BME280;33364;50.766;15.338;2023-02-28T08:33:20;95983.84;;;1.18;53.47
47636;BME280;33364;50.766;15.338;2023-02-28T08:35:46;95987.09;;;1.12;54.88
47636;BME280;33364;50.766;15.338;2023-02-28T08:38:11;95997.03;;;1.68;52.28
47636;BME280;33364;50.766;15.338;2023-02-28T08:40:37;95994.22;;;2.02;50.39
47636;BME280;33364;50.766;15.338;2023-02-28T08:43:03;95992.88;;;2.39;49.92
47636;BME280;33364;50.766;15.338;2023-02-28T08:45:29;95989.03;;;2.58;49.93
47636;BME280;33364;50.766;15.338;2023-02-28T08:47:55;95993.53;;;2.41;51.36
47636;BME280;33364;50.766;15.338;2023-02-28T08:50:22;95990.31;;;3.10;49.10
47636;BME280;33364;50.766;15.338;2023-02-28T08:52:47;95990.56;;;3.55;47.99
47636;BME280;33364;50.766;15.338;2023-02-28T08:55:13;95991.97;;;3.65;43.11
47636;BME280;33364;50.766;15.338;2023-02-28T08:57:39;95993.53;;;3.98;41.94
47636;BME280;33364;50.766;15.338;2023-02-28T09:00:05;95994.22;;;4.30;43.09
47636;BME280;33364;50.766;15.338;2023-02-28T09:02:31;95990.91;;;4.51;43.10
47636;BME280;33364;50.766;15.338;2023-02-28T09:04:57;95993.00;;;4.85;44.99
47636;BME280;33364;50.766;15.338;2023-02-28T09:07:24;95994.44;;;5.03;42.35
47636;BME280;33364;50.766;15.338;2023-02-28T09:09:50;95996.44;;;5.01;38.80
47636;BME280;33364;50.766;15.338;2023-02-28T09:12:23;96000.19;;;4.76;40.76
47636;BME280;33364;50.766;15.338;2023-02-28T09:14:50;95997.59;;;5.13;38.43
47636;BME280;33364;50.766;15.338;2023-02-28T09:17:16;95991.78;;;5.18;37.43
47636;BME280;33364;50.766;15.338;2023-02-28T09:19:42;95994.38;;;4.66;38.93
47636;BME280;33364;50.766;15.338;2023-02-28T09:22:09;95998.19;;;4.78;38.49
47636;BME280;33364;50.766;15.338;2023-02-28T09:24:36;96004.38;;;4.86;40.61
47636;BME280;33364;50.766;15.338;2023-02-28T09:27:02;96000.94;;;5.37;39.88
47636;BME280;33364;50.766;15.338;2023-02-28T09:29:28;96000.75;;;5.96;39.48
47636;BME280;33364;50.766;15.338;2023-02-28T09:31:54;95998.34;;;6.01;37.12
47636;BME280;33364;50.766;15.338;2023-02-28T09:34:21;95995.75;;;5.65;37.18
47636;BME280;33364;50.766;15.338;2023-02-28T09:36:47;95999.31;;;5.57;38.46
47636;BME280;33364;50.766;15.338;2023-02-28T09:39:13;95992.41;;;6.21;37.57
47636;BME280;33364;50.766;15.338;2023-02-28T09:41:43;96000.13;;;6.44;34.31
47636;BME280;33364;50.766;15.338;2023-02-28T09:44:38;95991.56;;;5.70;38.15
47636;BME280;33364;50.766;15.338;2023-02-28T09:47:14;95998.06;;;6.18;40.09
47636;BME280;33364;50.766;15.338;2023-02-28T09:49:46;96000.16;;;4.91;36.72
47636;BME280;33364;50.766;15.338;2023-02-28T09:52:19;95995.03;;;5.35;40.28
47636;BME280;33364;50.766;15.338;2023-02-28T09:54:45;95992.94;;;5.66;39.16
47636;BME280;33364;50.766;15.338;2023-02-28T10:05:41;95997.50;;;6.22;34.02
47636;BME280;33364;50.766;15.338;2023-02-28T10:08:15;95986.91;;;6.72;35.16
47636;BME280;33364;50.766;15.338;2023-02-28T10:10:48;95982.44;;;7.14;37.77
47636;BME280;33364;50.766;15.338;2023-02-28T10:13:37;95982.97;;;7.51;33.48
47636;BME280;33364;50.766;15.338;2023-02-28T10:16:13;95984.63;;;7.59;37.56
47636;BME280;33364;50.766;15.338;2023-02-28T10:18:46;95989.31;;;7.64;33.91
47636;BME280;33364;50.766;15.338;2023-02-28T10:21:19;95983.34;;;7.48;34.55
47636;BME280;33364;50.766;15.338;2023-02-28T10:23:46;95986.28;;;7.67;35.37
47636;BME280;33364;50.766;15.338;2023-02-28T10:26:16;95985.91;;;8.30;33.34
47636;BME280;33364;50.766;15.338;2023-02-28T10:28:42;95980.94;;;7.53;32.63
47636;BME280;33364;50.766;15.338;2023-02-28T10:31:14;95982.44;;;7.89;34.59
47636;BME280;33364;50.766;15.338;2023-02-28T10:33:42;95988.41;;;7.37;35.50
47636;BME280;33364;50.766;15.338;2023-02-28T10:36:13;95981.09;;;7.39;37.17
47636;BME280;33364;50.766;15.338;2023-02-28T10:38:39;95979.34;;;7.66;34.10
47636;BME280;33364;50.766;15.338;2023-02-28T10:41:11;95973.47;;;7.77;34.17
47636;BME280;33364;50.766;15.338;2023-02-28T10:43:39;95977.75;;;7.78;36.58
47636;BME280;33364;50.766;15.338;2023-02-28T10:48:39;95975.31;;;7.97;37.01
47636;BME280;33364;50.766;15.338;2023-02-28T10:51:17;95976.31;;;8.09;31.10
47636;BME280;33364;50.766;15.338;2023-02-28T10:53:51;95964.94;;;8.28;33.24
47636;BME280;33364;50.766;15.338;2023-02-28T10:56:22;95971.66;;;8.11;33.14
47636;BME280;33364;50.766;15.338;2023-02-28T11:03:55;95977.13;;;8.83;32.62
47636;BME280;33364;50.766;15.338;2023-02-28T11:06:29;95974.63;;;7.48;32.25
47636;BME280;33364;50.766;15.338;2023-02-28T11:08:58;95966.13;;;7.93;35.58
47636;BME280;33364;50.766;15.338;2023-02-28T11:11:27;95970.97;;;8.96;32.20
47636;BME280;33364;50.766;15.338;2023-02-28T11:14:03;95966.16;;;9.25;30.62
47636;BME280;33364;50.766;15.338;2023-02-28T11:16:34;95959.84;;;8.14;31.28
47636;BME280;33364;50.766;15.338;2023-02-28T11:19:01;95962.47;;;7.67;31.88
47636;BME280;33364;50.766;15.338;2023-02-28T11:21:33;95957.41;;;8.25;34.44
47636;BME280;33364;50.766;15.338;2023-02-28T11:24:04;95956.97;;;9.27;33.55
47636;BME280;33364;50.766;15.338;2023-02-28T11:26:43;95958.91;;;9.52;31.70
47636;BME280;33364;50.766;15.338;2023-02-28T11:29:21;95951.59;;;9.79;30.43
47636;BME280;33364;50.766;15.338;2023-02-28T11:32:04;95949.34;;;10.08;32.52
47636;BME280;33364;50.766;15.338;2023-02-28T11:34:32;95943.03;;;10.34;32.94
47636;BME280;33364;50.766;15.338;2023-02-28T11:36:59;95942.16;;;10.40;30.43
47636;BME280;33364;50.766;15.338;2023-02-28T11:39:26;95935.97;;;10.46;32.70
47636;BME280;33364;50.766;15.338;2023-02-28T11:47:30;95937.63;;;10.84;30.48
47636;BME280;33364;50.766;15.338;2023-02-28T11:52:58;95940.88;;;10.68;29.39
47636;BME280;33364;50.766;15.338;2023-02-28T11:55:48;95924.72;;;10.44;29.88
47636;BME280;33364;50.766;15.338;2023-02-28T12:01:05;95922.72;;;9.89;32.88
47636;BME280;33364;50.766;15.338;2023-02-28T12:06:41;95930.56;;;9.46;30.56
47636;BME280;33364;50.766;15.338;2023-02-28T12:12:06;95920.69;;;8.62;32.02
47636;BME280;33364;50.766;15.338;2023-02-28T12:15:02;95925.59;;;8.59;33.51
47636;BME280;33364;50.766;15.338;2023-02-28T12:28:29;95920.91;;;9.19;31.92
47636;BME280;33364;50.766;15.338;2023-02-28T12:31:10;95918.03;;;9.21;32.00
47636;BME280;33364;50.766;15.338;2023-02-28T12:33:47;95919.41;;;9.69;33.63
47636;BME280;33364;50.766;15.338;2023-02-28T12:36:18;95905.81;;;9.84;31.30
47636;BME280;33364;50.766;15.338;2023-02-28T12:39:00;95910.78;;;10.05;30.16
47636;BME280;33364;50.766;15.338;2023-02-28T12:44:12;95899.22;;;9.93;30.89
47636;BME280;33364;50.766;15.338;2023-02-28T12:46:44;95896.78;;;9.91;31.03
47636;BME280;33364;50.766;15.338;2023-02-28T12:49:38;95900.22;;;8.96;31.85
47636;BME280;33364;50.766;15.338;2023-02-28T12:52:07;95903.69;;;9.67;33.83
47636;BME280;33364;50.766;15.338;2023-02-28T13:00:21;95902.06;;;9.34;32.93
47636;BME280;33364;50.766;15.338;2023-02-28T13:03:09;95900.72;;;8.73;35.53
47636;BME280;33364;50.766;15.338;2023-02-28T13:10:53;95883.94;;;5.81;39.97
47636;BME280;33364;50.766;15.338;2023-02-28T13:13:27;95889.84;;;6.39;41.24
47636;BME280;33364;50.766;15.338;2023-02-28T13:16:04;95881.75;;;6.13;39.72
47636;BME280;33364;50.766;15.338;2023-02-28T13:21:03;95877.50;;;5.90;40.08
47636;BME280;33364;50.766;15.338;2023-02-28T13:34:32;95896.69;;;5.34;41.33
47636;BME280;33364;50.766;15.338;2023-02-28T13:39:57;95880.31;;;5.17;42.42
47636;BME280;33364;50.766;15.338;2023-02-28T13:53:14;95874.91;;;5.68;42.83
47636;BME280;33364;50.766;15.338;2023-02-28T13:56:15;95871.81;;;5.15;42.62
47636;BME280;33364;50.766;15.338;2023-02-28T13:59:19;95873.22;;;5.61;44.40
47636;BME280;33364;50.766;15.338;2023-02-28T14:02:11;95874.06;;;6.18;43.31
47636;BME280;33364;50.766;15.338;2023-02-28T14:05:16;95873.00;;;6.12;41.12
47636;BME280;33364;50.766;15.338;2023-02-28T14:07:53;95874.22;;;5.88;42.21
47636;BME280;33364;50.766;15.338;2023-02-28T14:10:26;95871.53;;;6.03;41.89
47636;BME280;33364;50.766;15.338;2023-02-28T14:15:40;95862.34;;;5.70;40.68
47636;BME280;33364;50.766;15.338;2023-02-28T14:18:34;95873.75;;;5.49;43.05
47636;BME280;33364;50.766;15.338;2023-02-28T14:21:11;95875.44;;;5.85;44.99
47636;BME280;33364;50.766;15.338;2023-02-28T14:26:33;95877.84;;;4.28;43.80
47636;BME280;33364;50.766;15.338;2023-02-28T14:32:32;95866.41;;;3.53;46.92
47636;BME280;33364;50.766;15.338;2023-02-28T14:37:54;95877.38;;;2.64;51.23
47636;BME280;33364;50.766;15.338;2023-02-28T14:40:33;95871.56;;;2.77;51.16
47636;BME280;33364;50.766;15.338;2023-02-28T14:43:04;95874.84;;;3.25;48.37
47636;BME280;33364;50.766;15.338;2023-02-28T14:45:32;95867.38;;;2.90;51.35
47636;BME280;33364;50.766;15.338;2023-02-28T14:48:01;95860.28;;;2.99;48.95
47636;BME280;33364;50.766;15.338;2023-02-28T14:50:34;95863.94;;;2.90;50.92
47636;BME280;33364;50.766;15.338;2023-02-28T14:53:01;95859.25;;;2.77;51.77
47636;BME280;33364;50.766;15.338;2023-02-28T14:55:33;95861.03;;;2.85;50.28
47636;BME280;33364;50.766;15.338;2023-02-28T14:58:01;95863.25;;;2.96;50.65
47636;BME280;33364;50.766;15.338;2023-02-28T15:00:34;95860.84;;;3.09;50.91
47636;BME280;33364;50.766;15.338;2023-02-28T15:03:39;95860.81;;;3.56;51.51
47636;BME280;33364;50.766;15.338;2023-02-28T15:06:17;95864.50;;;3.84;52.22
47636;BME280;33364;50.766;15.338;2023-02-28T15:08:44;95864.66;;;3.68;49.73
47636;BME280;33364;50.766;15.338;2023-02-28T15:11:17;95871.25;;;3.26;48.54
47636;BME280;33364;50.766;15.338;2023-02-28T15:13:52;95861.44;;;2.97;49.20
47636;BME280;33364;50.766;15.338;2023-02-28T15:16:19;95864.91;;;2.89;51.54
47636;BME280;33364;50.766;15.338;2023-02-28T15:18:52;95857.72;;;3.14;50.17
47636;BME280;33364;50.766;15.338;2023-02-28T15:21:25;95858.91;;;3.26;51.74
47636;BME280;33364;50.766;15.338;2023-02-28T15:24:19;95865.94;;;3.11;53.70
47636;BME280;33364;50.766;15.338;2023-02-28T15:26:58;95866.34;;;3.23;51.71
47636;BME280;33364;50.766;15.338;2023-02-28T15:29:27;95866.81;;;3.03;51.66
47636;BME280;33364;50.766;15.338;2023-02-28T15:32:00;95862.84;;;2.45;52.00
47636;BME280;33364;50.766;15.338;2023-02-28T15:34:35;95867.69;;;2.64;53.94